sensor_id;sensor_type;location;lat;lon;timestamp;P1;durP1;ratioP1;P2;durP2;ratioP2
69083;SDS011;56185;48.526;9.044;2022-11-20T00:00:51;3.17;;;2.10;;
69083;SDS011;56185;48.526;9.044;2022-11-20T00:03:17;2.92;;;1.92;;
69083;SDS011;56185;48.526;9.044;2022-11-20T00:05:42;3.90;;;1.87;;
69083;SDS011;56185;48.526;9.044;2022-11-20T00:08:07;3.78;;;2.22;;
69083;SDS011;56185;48.526;9.044;2022-11-20T00:10:35;3.78;;;2.30;;
69083;SDS011;56185;48.526;9.044;2022-11-20T00:13:01;4.15;;;2.30;;
69083;SDS011;56185;48.526;9.044;2022-11-20T00:15:26;4.72;;;2.40;;
69083;SDS011;56185;48.526;9.044;2022-11-20T00:17:52;3.40;;;2.30;;
69083;SDS011;56185;48.526;9.044;2022-11-20T00:20:17;3.58;;;2.50;;
69083;SDS011;56185;48.526;9.044;2022-11-20T00:22:42;3.22;;;2.58;;
69083;SDS011;56185;48.526;9.044;2022-11-20T00:25:07;4.18;;;2.97;;
69083;SDS011;56185;48.526;9.044;2022-11-20T00:27:33;4.78;;;2.83;;
69083;SDS011;56185;48.526;9.044;2022-11-20T00:29:58;4.68;;;2.75;;
69083;SDS011;56185;48.526;9.044;2022-11-20T00:32:23;3.90;;;2.63;;
69083;SDS011;56185;48.526;9.044;2022-11-20T00:34:49;3.63;;;2.92;;
69083;SDS011;56185;48.526;9.044;2022-11-20T00:37:14;4.13;;;2.88;;
69083;SDS011;56185;48.526;9.044;2022-11-20T00:39:39;3.75;;;2.63;;
69083;SDS011;56185;48.526;9.044;2022-11-20T00:42:04;4.22;;;2.95;;
69083;SDS011;56185;48.526;9.044;2022-11-20T00:44:30;3.77;;;2.93;;
69083;SDS011;56185;48.526;9.044;2022-11-20T00:46:55;5.93;;;3.00;;
69083;SDS011;56185;48.526;9.044;2022-11-20T00:49:20;4.13;;;3.00;;
69083;SDS011;56185;48.526;9.044;2022-11-20T00:51:45;5.88;;;3.75;;
69083;SDS011;56185;48.526;9.044;2022-11-20T00:54:11;5.90;;;3.90;;
69083;SDS011;56185;48.526;9.044;2022-11-20T00:56:36;5.47;;;4.07;;
69083;SDS011;56185;48.526;9.044;2022-11-20T00:59:01;7.20;;;3.83;;
69083;SDS011;56185;48.526;9.044;2022-11-20T01:01:26;4.27;;;3.37;;
69083;SDS011;56185;48.526;9.044;2022-11-20T01:03:54;6.47;;;3.40;;
69083;SDS011;56185;48.526;9.044;2022-11-20T01:06:22;5.03;;;3.47;;
69083;SDS011;56185;48.526;9.044;2022-11-20T01:08:50;5.97;;;3.70;;
69083;SDS011;56185;48.526;9.044;2022-11-20T01:11:21;5.38;;;3.63;;
69083;SDS011;56185;48.526;9.044;2022-11-20T01:13:48;5.10;;;3.60;;
69083;SDS011;56185;48.526;9.044;2022-11-20T01:16:15;4.40;;;3.33;;
69083;SDS011;56185;48.526;9.044;2022-11-20T01:18:41;5.75;;;3.63;;
69083;SDS011;56185;48.526;9.044;2022-11-20T01:21:12;6.50;;;3.80;;
69083;SDS011;56185;48.526;9.044;2022-11-20T01:23:48;5.72;;;3.42;;
69083;SDS011;56185;48.526;9.044;2022-11-20T01:26:19;5.63;;;3.70;;
69083;SDS011;56185;48.526;9.044;2022-11-20T01:28:46;5.05;;;3.72;;
69083;SDS011;56185;48.526;9.044;2022-11-20T01:33:42;5.20;;;3.83;;
69083;SDS011;56185;48.526;9.044;2022-11-20T01:36:08;4.93;;;3.53;;
69083;SDS011;56185;48.526;9.044;2022-11-20T01:38:35;7.00;;;3.80;;
69083;SDS011;56185;48.526;9.044;2022-11-20T01:41:00;6.25;;;3.80;;
69083;SDS011;56185;48.526;9.044;2022-11-20T01:43:26;5.80;;;3.88;;
69083;SDS011;56185;48.526;9.044;2022-11-20T01:45:56;4.72;;;3.47;;
69083;SDS011;56185;48.526;9.044;2022-11-20T01:48:21;7.57;;;4.20;;
69083;SDS011;56185;48.526;9.044;2022-11-20T01:50:50;5.47;;;3.50;;
69083;SDS011;56185;48.526;9.044;2022-11-20T01:53:18;5.93;;;3.80;;
69083;SDS011;56185;48.526;9.044;2022-11-20T01:55:49;6.55;;;4.25;;
69083;SDS011;56185;48.526;9.044;2022-11-20T01:58:18;8.32;;;4.15;;
69083;SDS011;56185;48.526;9.044;2022-11-20T02:00:47;5.47;;;3.90;;
69083;SDS011;56185;48.526;9.044;2022-11-20T02:03:13;6.15;;;3.88;;
69083;SDS011;56185;48.526;9.044;2022-11-20T02:05:43;5.97;;;4.38;;
69083;SDS011;56185;48.526;9.044;2022-11-20T02:08:14;5.13;;;3.90;;
69083;SDS011;56185;48.526;9.044;2022-11-20T02:10:40;6.63;;;4.55;;
69083;SDS011;56185;48.526;9.044;2022-11-20T02:13:06;7.25;;;4.60;;
69083;SDS011;56185;48.526;9.044;2022-11-20T02:15:32;5.78;;;4.50;;
69083;SDS011;56185;48.526;9.044;2022-11-20T02:17:58;7.20;;;4.53;;
69083;SDS011;56185;48.526;9.044;2022-11-20T02:20:23;6.35;;;4.50;;
69083;SDS011;56185;48.526;9.044;2022-11-20T02:22:50;6.55;;;4.35;;
69083;SDS011;56185;48.526;9.044;2022-11-20T02:25:35;6.45;;;4.35;;
69083;SDS011;56185;48.526;9.044;2022-11-20T02:28:01;5.18;;;4.05;;
69083;SDS011;56185;48.526;9.044;2022-11-20T02:30:27;7.10;;;4.80;;
69083;SDS011;56185;48.526;9.044;2022-11-20T02:32:53;5.68;;;4.28;;
69083;SDS011;56185;48.526;9.044;2022-11-20T02:37:43;6.87;;;4.43;;
69083;SDS011;56185;48.526;9.044;2022-11-20T02:40:09;7.25;;;4.20;;
69083;SDS011;56185;48.526;9.044;2022-11-20T02:42:36;5.80;;;4.15;;
69083;SDS011;56185;48.526;9.044;2022-11-20T02:45:01;5.38;;;4.07;;
69083;SDS011;56185;48.526;9.044;2022-11-20T02:47:27;4.93;;;3.40;;
69083;SDS011;56185;48.526;9.044;2022-11-20T02:49:52;5.68;;;3.47;;
69083;SDS011;56185;48.526;9.044;2022-11-20T02:52:17;6.05;;;3.50;;
69083;SDS011;56185;48.526;9.044;2022-11-20T02:54:43;4.20;;;3.10;;
69083;SDS011;56185;48.526;9.044;2022-11-20T02:57:08;4.57;;;3.20;;
69083;SDS011;56185;48.526;9.044;2022-11-20T02:59:33;4.35;;;3.38;;
69083;SDS011;56185;48.526;9.044;2022-11-20T03:01:58;4.13;;;2.90;;
69083;SDS011;56185;48.526;9.044;2022-11-20T03:04:24;4.97;;;3.33;;
69083;SDS011;56185;48.526;9.044;2022-11-20T03:06:49;4.32;;;2.90;;
69083;SDS011;56185;48.526;9.044;2022-11-20T03:09:14;8.13;;;3.07;;
69083;SDS011;56185;48.526;9.044;2022-11-20T03:11:39;6.55;;;3.45;;
69083;SDS011;56185;48.526;9.044;2022-11-20T03:14:05;4.07;;;2.97;;
69083;SDS011;56185;48.526;9.044;2022-11-20T03:16:30;5.80;;;3.22;;
69083;SDS011;56185;48.526;9.044;2022-11-20T03:18:57;4.53;;;3.08;;
69083;SDS011;56185;48.526;9.044;2022-11-20T03:21:22;4.70;;;3.20;;
69083;SDS011;56185;48.526;9.044;2022-11-20T03:23:47;4.63;;;3.20;;
69083;SDS011;56185;48.526;9.044;2022-11-20T03:28:49;5.05;;;2.70;;
69083;SDS011;56185;48.526;9.044;2022-11-20T03:31:16;5.03;;;2.65;;
69083;SDS011;56185;48.526;9.044;2022-11-20T03:33:43;4.32;;;2.88;;
69083;SDS011;56185;48.526;9.044;2022-11-20T03:36:09;4.10;;;2.75;;
69083;SDS011;56185;48.526;9.044;2022-11-20T03:38:37;6.70;;;2.70;;
69083;SDS011;56185;48.526;9.044;2022-11-20T03:41:04;4.70;;;3.15;;
69083;SDS011;56185;48.526;9.044;2022-11-20T03:43:31;4.13;;;2.90;;
69083;SDS011;56185;48.526;9.044;2022-11-20T03:45:57;6.13;;;3.00;;
69083;SDS011;56185;48.526;9.044;2022-11-20T03:48:22;4.97;;;2.85;;
69083;SDS011;56185;48.526;9.044;2022-11-20T03:50:47;3.15;;;2.50;;
69083;SDS011;56185;48.526;9.044;2022-11-20T03:53:13;3.08;;;2.17;;
69083;SDS011;56185;48.526;9.044;2022-11-20T03:55:39;4.20;;;2.60;;
69083;SDS011;56185;48.526;9.044;2022-11-20T03:58:04;4.30;;;2.42;;
69083;SDS011;56185;48.526;9.044;2022-11-20T04:00:29;3.70;;;2.20;;
69083;SDS011;56185;48.526;9.044;2022-11-20T04:02:57;4.72;;;2.25;;
69083;SDS011;56185;48.526;9.044;2022-11-20T04:05:23;3.17;;;2.17;;
69083;SDS011;56185;48.526;9.044;2022-11-20T04:07:48;2.78;;;2.00;;
69083;SDS011;56185;48.526;9.044;2022-11-20T04:10:14;3.93;;;2.40;;
69083;SDS011;56185;48.526;9.044;2022-11-20T04:12:39;4.97;;;2.55;;
69083;SDS011;56185;48.526;9.044;2022-11-20T04:15:04;3.63;;;2.60;;
69083;SDS011;56185;48.526;9.044;2022-11-20T04:17:30;4.82;;;2.58;;
69083;SDS011;56185;48.526;9.044;2022-11-20T04:19:55;3.20;;;2.17;;
69083;SDS011;56185;48.526;9.044;2022-11-20T04:22:20;2.57;;;1.87;;
69083;SDS011;56185;48.526;9.044;2022-11-20T04:24:45;3.20;;;2.40;;
69083;SDS011;56185;48.526;9.044;2022-11-20T04:27:11;4.28;;;2.40;;
69083;SDS011;56185;48.526;9.044;2022-11-20T04:29:36;2.90;;;2.07;;
69083;SDS011;56185;48.526;9.044;2022-11-20T04:32:01;3.25;;;2.30;;
69083;SDS011;56185;48.526;9.044;2022-11-20T04:34:26;2.53;;;2.10;;
69083;SDS011;56185;48.526;9.044;2022-11-20T04:36:52;3.73;;;2.30;;
69083;SDS011;56185;48.526;9.044;2022-11-20T04:39:18;3.60;;;2.27;;
69083;SDS011;56185;48.526;9.044;2022-11-20T04:41:43;3.63;;;2.15;;
69083;SDS011;56185;48.526;9.044;2022-11-20T04:44:08;2.90;;;2.00;;
69083;SDS011;56185;48.526;9.044;2022-11-20T04:46:35;3.22;;;2.28;;
69083;SDS011;56185;48.526;9.044;2022-11-20T04:49:03;3.65;;;2.42;;
69083;SDS011;56185;48.526;9.044;2022-11-20T04:51:29;4.22;;;2.45;;
69083;SDS011;56185;48.526;9.044;2022-11-20T04:53:54;5.22;;;2.20;;
69083;SDS011;56185;48.526;9.044;2022-11-20T04:56:19;3.30;;;2.20;;
69083;SDS011;56185;48.526;9.044;2022-11-20T04:58:45;3.08;;;2.03;;
69083;SDS011;56185;48.526;9.044;2022-11-20T05:01:14;3.47;;;2.20;;
69083;SDS011;56185;48.526;9.044;2022-11-20T05:03:41;2.60;;;1.88;;
69083;SDS011;56185;48.526;9.044;2022-11-20T05:06:08;4.38;;;2.35;;
69083;SDS011;56185;48.526;9.044;2022-11-20T05:08:35;3.63;;;2.10;;
69083;SDS011;56185;48.526;9.044;2022-11-20T05:11:01;2.75;;;2.05;;
69083;SDS011;56185;48.526;9.044;2022-11-20T05:13:26;2.42;;;1.80;;
69083;SDS011;56185;48.526;9.044;2022-11-20T05:15:51;3.17;;;1.90;;
69083;SDS011;56185;48.526;9.044;2022-11-20T05:18:17;2.63;;;1.80;;
69083;SDS011;56185;48.526;9.044;2022-11-20T05:20:42;4.03;;;2.00;;
69083;SDS011;56185;48.526;9.044;2022-11-20T05:23:07;2.60;;;1.92;;
69083;SDS011;56185;48.526;9.044;2022-11-20T05:25:32;2.50;;;1.80;;
69083;SDS011;56185;48.526;9.044;2022-11-20T05:27:58;2.30;;;1.90;;
69083;SDS011;56185;48.526;9.044;2022-11-20T05:30:23;2.80;;;1.93;;
69083;SDS011;56185;48.526;9.044;2022-11-20T05:32:48;2.70;;;1.90;;
69083;SDS011;56185;48.526;9.044;2022-11-20T05:35:13;4.63;;;2.27;;
69083;SDS011;56185;48.526;9.044;2022-11-20T05:37:39;3.58;;;2.20;;
69083;SDS011;56185;48.526;9.044;2022-11-20T05:40:04;2.50;;;2.07;;
69083;SDS011;56185;48.526;9.044;2022-11-20T05:42:30;1.95;;;1.70;;
69083;SDS011;56185;48.526;9.044;2022-11-20T05:44:59;3.30;;;1.70;;
69083;SDS011;56185;48.526;9.044;2022-11-20T05:47:25;3.88;;;2.00;;
69083;SDS011;56185;48.526;9.044;2022-11-20T05:49:51;4.45;;;1.90;;
69083;SDS011;56185;48.526;9.044;2022-11-20T05:52:17;2.17;;;1.80;;
69083;SDS011;56185;48.526;9.044;2022-11-20T05:54:42;3.00;;;2.00;;
69083;SDS011;56185;48.526;9.044;2022-11-20T05:57:07;3.27;;;2.17;;
69083;SDS011;56185;48.526;9.044;2022-11-20T05:59:32;2.60;;;2.00;;
69083;SDS011;56185;48.526;9.044;2022-11-20T06:01:58;2.92;;;2.08;;
69083;SDS011;56185;48.526;9.044;2022-11-20T06:04:23;4.82;;;1.85;;
69083;SDS011;56185;48.526;9.044;2022-11-20T06:06:48;3.15;;;2.30;;
69083;SDS011;56185;48.526;9.044;2022-11-20T06:09:13;2.88;;;2.10;;
69083;SDS011;56185;48.526;9.044;2022-11-20T06:11:39;3.13;;;2.00;;
69083;SDS011;56185;48.526;9.044;2022-11-20T06:14:04;3.27;;;1.90;;
69083;SDS011;56185;48.526;9.044;2022-11-20T06:16:29;2.50;;;1.77;;
69083;SDS011;56185;48.526;9.044;2022-11-20T06:18:55;2.63;;;1.80;;
69083;SDS011;56185;48.526;9.044;2022-11-20T06:21:21;2.47;;;1.90;;
69083;SDS011;56185;48.526;9.044;2022-11-20T06:23:47;3.47;;;2.08;;
69083;SDS011;56185;48.526;9.044;2022-11-20T06:26:14;8.23;;;2.92;;
69083;SDS011;56185;48.526;9.044;2022-11-20T06:28:41;3.03;;;2.00;;
69083;SDS011;56185;48.526;9.044;2022-11-20T06:31:07;3.95;;;1.88;;
69083;SDS011;56185;48.526;9.044;2022-11-20T06:33:35;2.95;;;2.20;;
69083;SDS011;56185;48.526;9.044;2022-11-20T06:36:00;3.47;;;2.17;;
69083;SDS011;56185;48.526;9.044;2022-11-20T06:38:26;2.78;;;1.85;;
69083;SDS011;56185;48.526;9.044;2022-11-20T06:40:52;2.17;;;1.70;;
69083;SDS011;56185;48.526;9.044;2022-11-20T06:43:20;3.25;;;1.73;;
69083;SDS011;56185;48.526;9.044;2022-11-20T06:45:51;3.08;;;1.88;;
69083;SDS011;56185;48.526;9.044;2022-11-20T06:48:19;3.58;;;2.13;;
69083;SDS011;56185;48.526;9.044;2022-11-20T06:50:45;3.80;;;1.90;;
69083;SDS011;56185;48.526;9.044;2022-11-20T06:53:10;5.47;;;2.00;;
69083;SDS011;56185;48.526;9.044;2022-11-20T06:55:35;3.10;;;1.90;;
69083;SDS011;56185;48.526;9.044;2022-11-20T06:58:00;4.07;;;1.90;;
69083;SDS011;56185;48.526;9.044;2022-11-20T07:00:26;3.90;;;1.90;;
69083;SDS011;56185;48.526;9.044;2022-11-20T07:02:51;2.90;;;1.80;;
69083;SDS011;56185;48.526;9.044;2022-11-20T07:05:16;2.00;;;1.70;;
69083;SDS011;56185;48.526;9.044;2022-11-20T07:07:42;2.25;;;1.70;;
69083;SDS011;56185;48.526;9.044;2022-11-20T07:10:07;3.30;;;1.90;;
69083;SDS011;56185;48.526;9.044;2022-11-20T07:12:33;2.88;;;1.60;;
69083;SDS011;56185;48.526;9.044;2022-11-20T07:14:58;2.50;;;1.80;;
69083;SDS011;56185;48.526;9.044;2022-11-20T07:17:24;3.20;;;1.93;;
69083;SDS011;56185;48.526;9.044;2022-11-20T07:19:49;2.17;;;1.70;;
69083;SDS011;56185;48.526;9.044;2022-11-20T07:22:14;3.17;;;1.92;;
69083;SDS011;56185;48.526;9.044;2022-11-20T07:24:39;3.03;;;1.93;;
69083;SDS011;56185;48.526;9.044;2022-11-20T07:27:05;2.80;;;1.95;;
69083;SDS011;56185;48.526;9.044;2022-11-20T07:29:30;3.10;;;1.70;;
69083;SDS011;56185;48.526;9.044;2022-11-20T07:31:55;3.58;;;2.53;;
69083;SDS011;56185;48.526;9.044;2022-11-20T07:34:20;4.47;;;1.65;;
69083;SDS011;56185;48.526;9.044;2022-11-20T07:36:46;3.47;;;1.87;;
69083;SDS011;56185;48.526;9.044;2022-11-20T07:39:11;4.28;;;2.00;;
69083;SDS011;56185;48.526;9.044;2022-11-20T07:41:36;3.13;;;1.80;;
69083;SDS011;56185;48.526;9.044;2022-11-20T07:44:01;3.27;;;1.80;;
69083;SDS011;56185;48.526;9.044;2022-11-20T07:46:27;2.42;;;1.75;;
69083;SDS011;56185;48.526;9.044;2022-11-20T07:48:52;2.75;;;1.80;;
69083;SDS011;56185;48.526;9.044;2022-11-20T07:51:17;2.87;;;1.57;;
69083;SDS011;56185;48.526;9.044;2022-11-20T07:53:42;3.15;;;2.08;;
69083;SDS011;56185;48.526;9.044;2022-11-20T07:56:08;3.00;;;1.70;;
69083;SDS011;56185;48.526;9.044;2022-11-20T07:58:33;2.07;;;1.60;;
69083;SDS011;56185;48.526;9.044;2022-11-20T08:01:05;1.92;;;1.50;;
69083;SDS011;56185;48.526;9.044;2022-11-20T08:03:31;2.40;;;1.33;;
69083;SDS011;56185;48.526;9.044;2022-11-20T08:06:00;3.25;;;1.50;;
69083;SDS011;56185;48.526;9.044;2022-11-20T08:08:26;2.88;;;1.75;;
69083;SDS011;56185;48.526;9.044;2022-11-20T08:10:52;2.20;;;1.63;;
69083;SDS011;56185;48.526;9.044;2022-11-20T08:13:18;2.38;;;1.40;;
69083;SDS011;56185;48.526;9.044;2022-11-20T08:15:47;2.47;;;1.60;;
69083;SDS011;56185;48.526;9.044;2022-11-20T08:18:13;4.05;;;1.70;;
69083;SDS011;56185;48.526;9.044;2022-11-20T08:20:38;2.58;;;1.80;;
69083;SDS011;56185;48.526;9.044;2022-11-20T08:23:04;2.25;;;1.60;;
69083;SDS011;56185;48.526;9.044;2022-11-20T08:25:31;2.00;;;1.40;;
69083;SDS011;56185;48.526;9.044;2022-11-20T08:27:58;1.83;;;1.52;;
69083;SDS011;56185;48.526;9.044;2022-11-20T08:30:27;2.38;;;1.60;;
69083;SDS011;56185;48.526;9.044;2022-11-20T08:32:53;2.90;;;1.67;;
69083;SDS011;56185;48.526;9.044;2022-11-20T08:35:20;2.00;;;1.60;;
69083;SDS011;56185;48.526;9.044;2022-11-20T08:37:46;2.10;;;1.60;;
69083;SDS011;56185;48.526;9.044;2022-11-20T08:40:12;2.17;;;1.60;;
69083;SDS011;56185;48.526;9.044;2022-11-20T08:42:45;1.77;;;1.30;;
69083;SDS011;56185;48.526;9.044;2022-11-20T08:45:14;2.50;;;1.60;;
69083;SDS011;56185;48.526;9.044;2022-11-20T08:47:39;3.97;;;1.60;;
69083;SDS011;56185;48.526;9.044;2022-11-20T08:50:05;2.92;;;1.40;;
69083;SDS011;56185;48.526;9.044;2022-11-20T08:52:30;3.08;;;1.60;;
69083;SDS011;56185;48.526;9.044;2022-11-20T08:54:55;2.92;;;1.70;;
69083;SDS011;56185;48.526;9.044;2022-11-20T08:57:21;2.83;;;2.00;;
69083;SDS011;56185;48.526;9.044;2022-11-20T08:59:46;3.13;;;2.33;;
69083;SDS011;56185;48.526;9.044;2022-11-20T09:02:11;3.45;;;2.33;;
69083;SDS011;56185;48.526;9.044;2022-11-20T09:04:36;3.53;;;2.50;;
69083;SDS011;56185;48.526;9.044;2022-11-20T09:07:01;3.97;;;2.20;;
69083;SDS011;56185;48.526;9.044;2022-11-20T09:09:27;3.23;;;2.60;;
69083;SDS011;56185;48.526;9.044;2022-11-20T09:11:52;3.93;;;2.10;;
69083;SDS011;56185;48.526;9.044;2022-11-20T09:14:17;2.53;;;1.60;;
69083;SDS011;56185;48.526;9.044;2022-11-20T09:16:44;2.73;;;1.60;;
69083;SDS011;56185;48.526;9.044;2022-11-20T09:19:10;2.75;;;1.73;;
69083;SDS011;56185;48.526;9.044;2022-11-20T09:21:35;2.58;;;1.45;;
69083;SDS011;56185;48.526;9.044;2022-11-20T09:24:00;2.70;;;1.63;;
69083;SDS011;56185;48.526;9.044;2022-11-20T09:26:25;2.00;;;1.50;;
69083;SDS011;56185;48.526;9.044;2022-11-20T09:28:51;2.28;;;1.50;;
69083;SDS011;56185;48.526;9.044;2022-11-20T09:31:22;1.92;;;1.58;;
69083;SDS011;56185;48.526;9.044;2022-11-20T09:33:49;3.70;;;1.80;;
69083;SDS011;56185;48.526;9.044;2022-11-20T09:36:14;2.70;;;2.08;;
69083;SDS011;56185;48.526;9.044;2022-11-20T09:38:39;4.03;;;2.17;;
69083;SDS011;56185;48.526;9.044;2022-11-20T09:41:05;2.92;;;1.90;;
69083;SDS011;56185;48.526;9.044;2022-11-20T09:43:47;3.30;;;1.88;;
69083;SDS011;56185;48.526;9.044;2022-11-20T09:46:29;2.33;;;1.70;;
69083;SDS011;56185;48.526;9.044;2022-11-20T09:54:29;3.08;;;2.20;;
69083;SDS011;56185;48.526;9.044;2022-11-20T09:57:02;2.95;;;2.30;;
69083;SDS011;56185;48.526;9.044;2022-11-20T10:01:58;2.88;;;1.90;;
69083;SDS011;56185;48.526;9.044;2022-11-20T10:04:25;2.13;;;1.70;;
69083;SDS011;56185;48.526;9.044;2022-11-20T10:09:39;2.75;;;1.60;;
69083;SDS011;56185;48.526;9.044;2022-11-20T10:14:58;2.13;;;1.55;;
69083;SDS011;56185;48.526;9.044;2022-11-20T10:26:00;2.33;;;1.60;;
69083;SDS011;56185;48.526;9.044;2022-11-20T10:31:27;1.95;;;1.30;;
69083;SDS011;56185;48.526;9.044;2022-11-20T10:34:00;2.28;;;1.63;;
69083;SDS011;56185;48.526;9.044;2022-11-20T10:36:30;1.92;;;1.40;;
69083;SDS011;56185;48.526;9.044;2022-11-20T10:41:40;2.25;;;1.38;;
69083;SDS011;56185;48.526;9.044;2022-11-20T10:44:14;2.60;;;1.60;;
69083;SDS011;56185;48.526;9.044;2022-11-20T10:46:44;1.98;;;1.30;;
69083;SDS011;56185;48.526;9.044;2022-11-20T10:49:11;2.45;;;1.40;;
69083;SDS011;56185;48.526;9.044;2022-11-20T11:00:06;2.30;;;1.27;;
69083;SDS011;56185;48.526;9.044;2022-11-20T11:02:35;4.05;;;1.73;;
69083;SDS011;56185;48.526;9.044;2022-11-20T11:05:16;2.42;;;1.63;;
69083;SDS011;56185;48.526;9.044;2022-11-20T11:10:21;2.80;;;1.70;;
69083;SDS011;56185;48.526;9.044;2022-11-20T11:12:50;3.85;;;2.33;;
69083;SDS011;56185;48.526;9.044;2022-11-20T11:15:26;5.35;;;2.05;;
69083;SDS011;56185;48.526;9.044;2022-11-20T11:18:02;2.08;;;1.48;;
69083;SDS011;56185;48.526;9.044;2022-11-20T11:20:28;2.28;;;1.40;;
69083;SDS011;56185;48.526;9.044;2022-11-20T11:22:55;2.70;;;1.52;;
69083;SDS011;56185;48.526;9.044;2022-11-20T11:25:24;2.55;;;1.30;;
69083;SDS011;56185;48.526;9.044;2022-11-20T11:27:53;3.17;;;1.90;;
69083;SDS011;56185;48.526;9.044;2022-11-20T11:30:20;3.05;;;1.85;;
69083;SDS011;56185;48.526;9.044;2022-11-20T11:32:46;2.78;;;1.33;;
69083;SDS011;56185;48.526;9.044;2022-11-20T11:35:19;3.80;;;1.13;;
69083;SDS011;56185;48.526;9.044;2022-11-20T11:37:48;7.15;;;1.50;;
69083;SDS011;56185;48.526;9.044;2022-11-20T11:40:13;3.15;;;1.10;;
69083;SDS011;56185;48.526;9.044;2022-11-20T11:42:43;2.85;;;1.10;;
69083;SDS011;56185;48.526;9.044;2022-11-20T11:57:26;3.92;;;1.50;;
69083;SDS011;56185;48.526;9.044;2022-11-20T12:05:21;3.90;;;1.60;;
69083;SDS011;56185;48.526;9.044;2022-11-20T12:07:57;2.95;;;1.63;;
69083;SDS011;56185;48.526;9.044;2022-11-20T12:10:43;3.22;;;2.00;;
69083;SDS011;56185;48.526;9.044;2022-11-20T12:15:44;3.08;;;1.63;;
69083;SDS011;56185;48.526;9.044;2022-11-20T12:18:15;3.35;;;1.75;;
69083;SDS011;56185;48.526;9.044;2022-11-20T12:29:48;3.15;;;1.90;;
69083;SDS011;56185;48.526;9.044;2022-11-20T12:37:43;1.77;;;1.00;;
69083;SDS011;56185;48.526;9.044;2022-11-20T12:40:27;2.13;;;1.20;;
69083;SDS011;56185;48.526;9.044;2022-11-20T12:43:01;2.03;;;1.00;;
69083;SDS011;56185;48.526;9.044;2022-11-20T12:48:25;1.60;;;0.90;;
69083;SDS011;56185;48.526;9.044;2022-11-20T13:03:58;2.50;;;1.10;;
69083;SDS011;56185;48.526;9.044;2022-11-20T13:06:51;3.17;;;1.20;;
69083;SDS011;56185;48.526;9.044;2022-11-20T13:09:18;1.75;;;0.88;;
69083;SDS011;56185;48.526;9.044;2022-11-20T13:11:47;3.40;;;1.25;;
69083;SDS011;56185;48.526;9.044;2022-11-20T13:17:17;1.95;;;1.10;;
69083;SDS011;56185;48.526;9.044;2022-11-20T13:19:54;2.00;;;1.30;;
69083;SDS011;56185;48.526;9.044;2022-11-20T13:22:26;3.42;;;1.20;;
69083;SDS011;56185;48.526;9.044;2022-11-20T13:25:10;2.35;;;1.10;;
69083;SDS011;56185;48.526;9.044;2022-11-20T13:27:46;3.20;;;1.45;;
69083;SDS011;56185;48.526;9.044;2022-11-20T13:30:14;2.00;;;1.10;;
69083;SDS011;56185;48.526;9.044;2022-11-20T13:32:55;2.25;;;1.00;;
69083;SDS011;56185;48.526;9.044;2022-11-20T13:38:00;1.58;;;1.20;;
69083;SDS011;56185;48.526;9.044;2022-11-20T13:40:38;3.15;;;1.08;;
69083;SDS011;56185;48.526;9.044;2022-11-20T13:43:21;2.92;;;1.08;;
69083;SDS011;56185;48.526;9.044;2022-11-20T13:45:56;2.75;;;1.17;;
69083;SDS011;56185;48.526;9.044;2022-11-20T13:48:26;2.67;;;1.17;;
69083;SDS011;56185;48.526;9.044;2022-11-20T13:56:26;2.53;;;1.20;;
69083;SDS011;56185;48.526;9.044;2022-11-20T14:01:52;2.63;;;1.38;;
69083;SDS011;56185;48.526;9.044;2022-11-20T14:04:19;2.00;;;1.50;;
69083;SDS011;56185;48.526;9.044;2022-11-20T14:07:00;3.88;;;1.70;;
69083;SDS011;56185;48.526;9.044;2022-11-20T14:09:31;2.92;;;1.27;;
69083;SDS011;56185;48.526;9.044;2022-11-20T14:11:57;2.75;;;1.50;;
69083;SDS011;56185;48.526;9.044;2022-11-20T14:14:26;2.13;;;1.25;;
69083;SDS011;56185;48.526;9.044;2022-11-20T14:17:07;2.40;;;1.40;;
69083;SDS011;56185;48.526;9.044;2022-11-20T14:19:44;2.33;;;1.45;;
69083;SDS011;56185;48.526;9.044;2022-11-20T14:22:19;4.50;;;1.75;;
69083;SDS011;56185;48.526;9.044;2022-11-20T14:24:44;2.80;;;1.40;;
69083;SDS011;56185;48.526;9.044;2022-11-20T14:27:16;2.05;;;1.30;;
69083;SDS011;56185;48.526;9.044;2022-11-20T14:29:55;1.60;;;1.15;;
69083;SDS011;56185;48.526;9.044;2022-11-20T14:32:30;3.15;;;1.35;;
69083;SDS011;56185;48.526;9.044;2022-11-20T14:35:07;3.35;;;1.40;;
69083;SDS011;56185;48.526;9.044;2022-11-20T14:37:48;4.13;;;1.95;;
69083;SDS011;56185;48.526;9.044;2022-11-20T14:40:28;5.07;;;2.40;;
69083;SDS011;56185;48.526;9.044;2022-11-20T14:49:00;4.22;;;2.38;;
69083;SDS011;56185;48.526;9.044;2022-11-20T14:54:27;4.05;;;2.10;;
69083;SDS011;56185;48.526;9.044;2022-11-20T14:56:53;3.03;;;1.70;;
69083;SDS011;56185;48.526;9.044;2022-11-20T14:59:22;4.30;;;1.70;;
69083;SDS011;56185;48.526;9.044;2022-11-20T15:02:02;2.70;;;2.05;;
69083;SDS011;56185;48.526;9.044;2022-11-20T15:04:30;3.08;;;1.48;;
69083;SDS011;56185;48.526;9.044;2022-11-20T15:06:57;3.58;;;1.63;;
69083;SDS011;56185;48.526;9.044;2022-11-20T15:09:24;3.45;;;1.83;;
69083;SDS011;56185;48.526;9.044;2022-11-20T15:12:16;4.00;;;2.30;;
69083;SDS011;56185;48.526;9.044;2022-11-20T15:14:49;4.65;;;2.17;;
69083;SDS011;56185;48.526;9.044;2022-11-20T15:17:14;4.53;;;2.13;;
69083;SDS011;56185;48.526;9.044;2022-11-20T15:19:40;3.67;;;2.30;;
69083;SDS011;56185;48.526;9.044;2022-11-20T15:22:07;5.63;;;2.30;;
69083;SDS011;56185;48.526;9.044;2022-11-20T15:24:36;5.20;;;2.42;;
69083;SDS011;56185;48.526;9.044;2022-11-20T15:27:01;5.23;;;2.00;;
69083;SDS011;56185;48.526;9.044;2022-11-20T15:29:27;4.00;;;2.13;;
69083;SDS011;56185;48.526;9.044;2022-11-20T15:31:52;4.25;;;1.95;;
69083;SDS011;56185;48.526;9.044;2022-11-20T15:34:17;3.20;;;1.80;;
69083;SDS011;56185;48.526;9.044;2022-11-20T15:36:43;2.90;;;1.88;;
69083;SDS011;56185;48.526;9.044;2022-11-20T15:39:08;3.53;;;1.85;;
69083;SDS011;56185;48.526;9.044;2022-11-20T15:41:34;3.53;;;1.92;;
69083;SDS011;56185;48.526;9.044;2022-11-20T15:44:00;3.85;;;2.70;;
69083;SDS011;56185;48.526;9.044;2022-11-20T15:46:26;5.28;;;2.53;;
69083;SDS011;56185;48.526;9.044;2022-11-20T15:48:54;3.80;;;2.40;;
69083;SDS011;56185;48.526;9.044;2022-11-20T15:51:27;4.35;;;2.47;;
69083;SDS011;56185;48.526;9.044;2022-11-20T15:53:59;3.75;;;2.40;;
69083;SDS011;56185;48.526;9.044;2022-11-20T15:56:25;4.95;;;2.90;;
69083;SDS011;56185;48.526;9.044;2022-11-20T15:58:50;12.57;;;5.07;;
69083;SDS011;56185;48.526;9.044;2022-11-20T16:01:17;5.57;;;3.08;;
69083;SDS011;56185;48.526;9.044;2022-11-20T16:03:44;6.75;;;3.80;;
69083;SDS011;56185;48.526;9.044;2022-11-20T16:06:09;5.22;;;2.90;;
69083;SDS011;56185;48.526;9.044;2022-11-20T16:08:34;6.38;;;3.00;;
69083;SDS011;56185;48.526;9.044;2022-11-20T16:11:00;4.97;;;2.78;;
69083;SDS011;56185;48.526;9.044;2022-11-20T16:13:25;3.78;;;2.50;;
69083;SDS011;56185;48.526;9.044;2022-11-20T16:15:51;5.18;;;2.70;;
69083;SDS011;56185;48.526;9.044;2022-11-20T16:18:21;3.65;;;2.47;;
69083;SDS011;56185;48.526;9.044;2022-11-20T16:20:47;3.92;;;2.58;;
69083;SDS011;56185;48.526;9.044;2022-11-20T16:23:16;4.18;;;2.60;;
69083;SDS011;56185;48.526;9.044;2022-11-20T16:25:42;6.63;;;3.00;;
69083;SDS011;56185;48.526;9.044;2022-11-20T16:28:08;4.32;;;2.40;;
69083;SDS011;56185;48.526;9.044;2022-11-20T16:30:33;3.75;;;2.55;;
69083;SDS011;56185;48.526;9.044;2022-11-20T16:32:59;7.13;;;2.58;;
69083;SDS011;56185;48.526;9.044;2022-11-20T16:35:28;4.93;;;2.15;;
69083;SDS011;56185;48.526;9.044;2022-11-20T16:37:55;4.68;;;2.10;;
69083;SDS011;56185;48.526;9.044;2022-11-20T16:40:21;3.38;;;1.85;;
69083;SDS011;56185;48.526;9.044;2022-11-20T16:42:47;4.60;;;2.25;;
69083;SDS011;56185;48.526;9.044;2022-11-20T16:45:12;3.63;;;2.20;;
69083;SDS011;56185;48.526;9.044;2022-11-20T16:47:37;4.40;;;1.90;;
69083;SDS011;56185;48.526;9.044;2022-11-20T16:50:03;2.85;;;1.90;;